Time;durP1;ratioP1;P1;durP2;ratioP2;P2;SDS_P1;SDS_P2;PMS_P1;PMS_P2;Temp;Humidity;BMP_temperature;BMP_pressure;BME280_temperature;BME280_humidity;BME280_pressure;Samples;Min_cycle;Max_cycle;Signal;HPM_P1;HPM_P2
2020/12/14 00:00:13;;;;;;;53.80;39.20;;;;;;;;;;4994157;28;20235;-85
2020/12/14 00:02:43;;;;;;;51.10;38.23;;;;;;;;;;4993981;28;20190;-85
2020/12/14 00:05:13;;;;;;;56.00;39.07;;;;;;;;;;4993949;28;20179;-85
2020/12/14 00:07:45;;;;;;;51.23;36.80;;;;;;;;;;4994166;28;20181;-85
2020/12/14 00:10:14;;;;;;;48.83;36.67;;;;;;;;;;4994155;28;20261;-85
2020/12/14 00:12:49;;;;;;;48.50;37.07;;;;;;;;;;4992634;28;20301;-85
2020/12/14 00:15:21;;;;;;;47.67;37.13;;;;;;;;;;4994058;28;20541;-85
2020/12/14 00:17:47;;;;;;;53.20;40.10;;;;;;;;;;4992507;28;20175;-85
2020/12/14 00:20:19;;;;;;;53.57;37.30;;;;;;;;;;4993967;28;20175;-85
2020/12/14 00:22:51;;;;;;;61.00;42.70;;;;;;;;;;4992356;28;20575;-85
2020/12/14 00:25:23;;;;;;;50.70;36.80;;;;;;;;;;4992539;28;20663;-85
2020/12/14 00:27:55;;;;;;;56.13;40.27;;;;;;;;;;4992412;28;20657;-85
2020/12/14 00:30:27;;;;;;;54.93;40.37;;;;;;;;;;4992116;28;20175;-85
2020/12/14 00:32:57;;;;;;;54.63;40.33;;;;;;;;;;4991961;28;20218;-85
2020/12/14 00:35:31;;;;;;;52.23;40.47;;;;;;;;;;4992260;28;20234;-84
2020/12/14 00:38:04;;;;;;;53.53;38.70;;;;;;;;;;4993900;28;20168;-85
2020/12/14 00:40:35;;;;;;;46.57;36.90;;;;;;;;;;4993951;28;20172;-86
2020/12/14 00:43:05;;;;;;;50.53;37.60;;;;;;;;;;4993480;28;20199;-85
2020/12/14 00:45:38;;;;;;;46.30;37.30;;;;;;;;;;4992264;28;20175;-85
2020/12/14 00:48:05;;;;;;;51.43;38.70;;;;;;;;;;4992993;28;20244;-86
2020/12/14 00:50:35;;;;;;;48.83;36.63;;;;;;;;;;4993472;28;20179;-86
2020/12/14 00:53:08;;;;;;;47.20;36.73;;;;;;;;;;4993387;28;20198;-86
2020/12/14 00:55:40;;;;;;;45.83;37.50;;;;;;;;;;4992085;28;20199;-85
2020/12/14 00:58:13;;;;;;;49.20;37.30;;;;;;;;;;4992191;28;20205;-86
2020/12/14 01:00:44;;;;;;;49.47;38.53;;;;;;;;;;4992167;28;20209;-86
2020/12/14 01:03:11;;;;;;;46.77;35.97;;;;;;;;;;4993330;28;20314;-86
2020/12/14 01:05:44;;;;;;;42.27;37.23;;;;;;;;;;4993267;28;20180;-85
2020/12/14 01:08:11;;;;;;;45.70;36.80;;;;;;;;;;4992114;28;20187;-85
2020/12/14 01:10:43;;;;;;;53.37;36.37;;;;;;;;;;4992116;28;20180;-86
2020/12/14 01:13:10;;;;;;;52.03;38.47;;;;;;;;;;4991957;28;20582;-85
2020/12/14 01:15:43;;;;;;;46.13;36.93;;;;;;;;;;4991985;28;20222;-85
2020/12/14 01:18:16;;;;;;;47.50;35.77;;;;;;;;;;4993589;28;20180;-85
2020/12/14 01:20:46;;;;;;;42.67;36.07;;;;;;;;;;4991987;28;20262;-85
2020/12/14 01:23:15;;;;;;;44.60;35.40;;;;;;;;;;4991994;28;20192;-85
2020/12/14 01:25:47;;;;;;;46.23;34.97;;;;;;;;;;4991923;28;20175;-85
2020/12/14 01:28:20;;;;;;;45.03;35.27;;;;;;;;;;4991836;28;20559;-85
2020/12/14 01:30:56;;;;;;;43.20;36.43;;;;;;;;;;4991988;28;20184;-86
2020/12/14 01:33:25;;;;;;;43.73;37.23;;;;;;;;;;4993745;28;20187;-85
2020/12/14 01:35:56;;;;;;;43.23;36.87;;;;;;;;;;4991876;28;20238;-86
2020/12/14 01:38:27;;;;;;;45.23;37.47;;;;;;;;;;4993100;28;20191;-86
2020/12/14 01:40:57;;;;;;;46.37;38.30;;;;;;;;;;4991777;28;20179;-86
2020/12/14 01:43:30;;;;;;;46.30;38.33;;;;;;;;;;4994425;28;20179;-86
2020/12/14 01:45:59;;;;;;;42.53;37.63;;;;;;;;;;4995155;28;20658;-86
2020/12/14 01:48:31;;;;;;;43.13;38.03;;;;;;;;;;4996532;28;20178;-85
2020/12/14 01:51:01;;;;;;;45.93;37.30;;;;;;;;;;4996423;28;20213;-85
2020/12/14 01:53:34;;;;;;;45.10;37.87;;;;;;;;;;4995363;28;20251;-86
2020/12/14 01:56:05;;;;;;;43.77;37.00;;;;;;;;;;4994961;28;20203;-86
2020/12/14 01:58:38;;;;;;;41.27;37.17;;;;;;;;;;4995006;28;20651;-86
2020/12/14 02:01:10;;;;;;;41.83;37.73;;;;;;;;;;4996306;28;20229;-85
2020/12/14 02:03:39;;;;;;;40.80;36.47;;;;;;;;;;4994887;28;20187;-85
2020/12/14 02:06:11;;;;;;;41.17;36.73;;;;;;;;;;4994860;28;20605;-86
2020/12/14 02:08:43;;;;;;;38.97;35.00;;;;;;;;;;4994917;28;20234;-86
2020/12/14 02:11:15;;;;;;;40.47;36.07;;;;;;;;;;4994725;28;20180;-86
2020/12/14 02:13:51;;;;;;;39.50;35.63;;;;;;;;;;4994730;28;20190;-85
2020/12/14 02:16:20;;;;;;;37.80;34.00;;;;;;;;;;4995453;28;20252;-86
2020/12/14 02:18:50;;;;;;;38.00;34.17;;;;;;;;;;4994649;28;20234;-86
2020/12/14 02:21:21;;;;;;;39.17;35.10;;;;;;;;;;4994962;28;20249;-86
2020/12/14 02:23:50;;;;;;;37.10;33.43;;;;;;;;;;4994529;28;20179;-86
2020/12/14 02:26:17;;;;;;;39.30;35.13;;;;;;;;;;4994445;28;20211;-86
2020/12/14 02:28:47;;;;;;;37.50;33.80;;;;;;;;;;4995752;28;20182;-86
2020/12/14 02:31:18;;;;;;;38.23;34.23;;;;;;;;;;4995680;28;20245;-85
2020/12/14 02:33:50;;;;;;;38.43;34.57;;;;;;;;;;4995617;28;20167;-85
2020/12/14 02:36:20;;;;;;;37.30;33.67;;;;;;;;;;4994218;28;20254;-86
2020/12/14 02:38:52;;;;;;;37.73;33.87;;;;;;;;;;4994282;28;20645;-86
2020/12/14 02:41:21;;;;;;;39.47;35.37;;;;;;;;;;4994220;28;20624;-86
2020/12/14 02:43:56;;;;;;;39.33;35.53;;;;;;;;;;4994250;28;20202;-86
2020/12/14 02:46:22;;;;;;;37.43;33.73;;;;;;;;;;4994591;28;20547;-86
2020/12/14 02:48:54;;;;;;;39.63;35.77;;;;;;;;;;4994115;28;20710;-86
2020/12/14 02:51:24;;;;;;;37.80;33.90;;;;;;;;;;4994303;28;20254;-85
2020/12/14 02:53:55;;;;;;;40.43;36.37;;;;;;;;;;4994940;28;20262;-85
2020/12/14 02:56:21;;;;;;;38.20;34.47;;;;;;;;;;4993865;28;20234;-86
2020/12/14 02:58:52;;;;;;;39.80;35.57;;;;;;;;;;4993840;28;20179;-86
2020/12/14 03:01:28;;;;;;;39.73;36.00;;;;;;;;;;4993837;28;20247;-86
2020/12/14 03:04:00;;;;;;;39.93;35.73;;;;;;;;;;4994605;28;20175;-86
2020/12/14 03:06:33;;;;;;;41.67;37.73;;;;;;;;;;4993678;28;20178;-85
2020/12/14 03:09:06;;;;;;;39.80;36.10;;;;;;;;;;4994217;28;20236;-85
2020/12/14 03:11:35;;;;;;;39.93;36.00;;;;;;;;;;4994761;28;20282;-85
2020/12/14 03:14:10;;;;;;;41.53;37.23;;;;;;;;;;4993610;28;20217;-86
2020/12/14 03:16:47;;;;;;;38.50;34.87;;;;;;;;;;4995147;28;20643;-86
2020/12/14 03:19:17;;;;;;;39.07;35.23;;;;;;;;;;4995044;28;20174;-86
2020/12/14 03:21:47;;;;;;;38.73;34.93;;;;;;;;;;4994593;28;20313;-85
2020/12/14 03:24:20;;;;;;;38.03;34.20;;;;;;;;;;4994904;28;20707;-85
2020/12/14 03:26:51;;;;;;;37.37;33.90;;;;;;;;;;4993439;28;20858;-86
2020/12/14 03:29:22;;;;;;;39.73;35.67;;;;;;;;;;4993269;28;20183;-86
2020/12/14 03:31:54;;;;;;;38.90;35.00;;;;;;;;;;4993259;28;20234;-86
2020/12/14 03:34:23;;;;;;;37.77;34.03;;;;;;;;;;4994775;28;20191;-86
2020/12/14 03:36:55;;;;;;;37.60;34.17;;;;;;;;;;4993177;28;20591;-86
2020/12/14 03:39:27;;;;;;;37.10;33.40;;;;;;;;;;4993116;28;20175;-86
2020/12/14 03:42:02;;;;;;;37.57;33.93;;;;;;;;;;4993012;28;20721;-86
2020/12/14 03:44:31;;;;;;;37.63;34.07;;;;;;;;;;4993141;28;20183;-86
2020/12/14 03:47:04;;;;;;;35.23;32.03;;;;;;;;;;4992970;28;20181;-86
2020/12/14 03:49:39;;;;;;;35.57;32.27;;;;;;;;;;4992984;28;20183;-86
2020/12/14 03:52:09;;;;;;;37.63;34.13;;;;;;;;;;4992833;28;20203;-86
2020/12/14 03:54:41;;;;;;;37.00;33.57;;;;;;;;;;4992785;28;20643;-86
2020/12/14 03:57:09;;;;;;;35.97;32.83;;;;;;;;;;4992755;28;20180;-85
2020/12/14 03:59:41;;;;;;;35.60;32.10;;;;;;;;;;4994034;28;20181;-85
2020/12/14 04:02:11;;;;;;;36.00;32.70;;;;;;;;;;4992981;28;20575;-85
2020/12/14 04:04:38;;;;;;;35.63;32.30;;;;;;;;;;4994110;28;20257;-85
2020/12/14 04:07:09;;;;;;;35.10;32.07;;;;;;;;;;4991885;28;20207;-85
2020/12/14 04:09:41;;;;;;;35.07;31.27;;;;;;;;;;4993849;28;20178;-86
2020/12/14 04:12:13;;;;;;;33.30;30.30;;;;;;;;;;4992598;28;20238;-85
2020/12/14 04:14:46;;;;;;;35.93;32.43;;;;;;;;;;4992561;28;20666;-86
2020/12/14 04:17:21;;;;;;;33.43;30.47;;;;;;;;;;4994136;28;20173;-86
2020/12/14 04:19:52;;;;;;;33.33;30.23;;;;;;;;;;4992553;28;20650;-86
2020/12/14 04:22:24;;;;;;;33.23;30.13;;;;;;;;;;4993746;28;20196;-86
2020/12/14 04:24:54;;;;;;;31.77;28.77;;;;;;;;;;4992484;28;20187;-86
2020/12/14 04:27:28;;;;;;;32.63;29.73;;;;;;;;;;4993931;28;20246;-85
2020/12/14 04:30:01;;;;;;;32.80;30.03;;;;;;;;;;4992446;28;20203;-86
2020/12/14 04:32:32;;;;;;;30.47;27.77;;;;;;;;;;4993537;28;20290;-85
2020/12/14 04:35:03;;;;;;;34.20;30.83;;;;;;;;;;4993562;28;20671;-85
2020/12/14 04:37:35;;;;;;;33.43;30.13;;;;;;;;;;4993570;28;20179;-85
2020/12/14 04:40:09;;;;;;;31.27;28.63;;;;;;;;;;4993463;28;20183;-86
2020/12/14 04:42:43;;;;;;;33.10;30.10;;;;;;;;;;4992283;28;20230;-86
2020/12/14 04:45:15;;;;;;;32.77;29.83;;;;;;;;;;4993894;28;20639;-86
2020/12/14 04:47:43;;;;;;;34.43;31.37;;;;;;;;;;4993361;28;20539;-86
2020/12/14 04:50:11;;;;;;;34.03;30.97;;;;;;;;;;4993790;28;20179;-86
2020/12/14 04:52:43;;;;;;;35.60;32.40;;;;;;;;;;4993416;28;20290;-85
2020/12/14 04:55:16;;;;;;;34.10;31.30;;;;;;;;;;4992167;28;20294;-86
2020/12/14 04:57:47;;;;;;;33.57;30.87;;;;;;;;;;4993658;28;20162;-85
2020/12/14 05:00:17;;;;;;;33.23;30.53;;;;;;;;;;4993365;28;20176;-86
2020/12/14 05:02:44;;;;;;;35.23;32.00;;;;;;;;;;4993242;28;20283;-86
2020/12/14 05:05:14;;;;;;;33.97;31.03;;;;;;;;;;4993442;28;20178;-86
2020/12/14 05:07:47;;;;;;;33.03;30.50;;;;;;;;;;4992522;28;20234;-86
2020/12/14 05:10:17;;;;;;;31.93;29.33;;;;;;;;;;4992035;28;20177;-86
2020/12/14 05:12:48;;;;;;;35.70;32.77;;;;;;;;;;4991996;28;20198;-86
2020/12/14 05:15:21;;;;;;;36.77;33.33;;;;;;;;;;4991989;28;20202;-86
2020/12/14 05:17:54;;;;;;;34.90;31.97;;;;;;;;;;4993696;28;20657;-86
2020/12/14 05:20:21;;;;;;;35.97;33.07;;;;;;;;;;4995782;28;20202;-86
2020/12/14 05:22:59;;;;;;;34.20;31.40;;;;;;;;;;4996814;28;20200;-86
2020/12/14 05:25:34;;;;;;;31.30;28.83;;;;;;;;;;4997007;28;20174;-85
2020/12/14 05:28:12;;;;;;;34.17;31.33;;;;;;;;;;4995668;28;20184;-86
2020/12/14 05:30:46;;;;;;;33.50;30.80;;;;;;;;;;4995604;28;20213;-86
2020/12/14 05:33:20;;;;;;;33.83;31.00;;;;;;;;;;4995818;28;20219;-86
2020/12/14 05:35:47;;;;;;;31.70;29.03;;;;;;;;;;4996837;28;20206;-85
2020/12/14 05:38:20;;;;;;;31.07;28.57;;;;;;;;;;4995419;28;20558;-85
2020/12/14 05:41:01;;;;;;;31.03;28.33;;;;;;;;;;4995446;28;20181;-85
2020/12/14 05:43:33;;;;;;;31.17;28.53;;;;;;;;;;4995356;28;20667;-85
2020/12/14 05:46:15;;;;;;;28.20;25.80;;;;;;;;;;4995314;28;20182;-86
2020/12/14 05:48:47;;;;;;;29.37;27.07;;;;;;;;;;4996784;28;20593;-86
2020/12/14 05:51:16;;;;;;;30.20;27.80;;;;;;;;;;4995162;28;20199;-86
2020/12/14 05:53:51;;;;;;;29.13;26.83;;;;;;;;;;4995631;28;20185;-86
2020/12/14 05:56:28;;;;;;;28.73;26.20;;;;;;;;;;4996891;28;20614;-86
2020/12/14 05:59:07;;;;;;;28.23;25.93;;;;;;;;;;4996327;28;20180;-86
2020/12/14 06:01:39;;;;;;;30.27;27.87;;;;;;;;;;4995037;28;20357;-85
2020/12/14 06:04:09;;;;;;;30.53;27.93;;;;;;;;;;4996451;28;20632;-86
2020/12/14 06:06:49;;;;;;;29.80;27.40;;;;;;;;;;4994920;28;20216;-85
2020/12/14 06:09:24;;;;;;;28.13;25.87;;;;;;;;;;4996418;28;20186;-86
2020/12/14 06:12:04;;;;;;;28.27;26.03;;;;;;;;;;4995030;28;20211;-85
2020/12/14 06:14:41;;;;;;;30.27;27.97;;;;;;;;;;4996102;28;20176;-85
2020/12/14 06:17:13;;;;;;;31.20;29.07;;;;;;;;;;4994827;28;20647;-86
2020/12/14 06:19:45;;;;;;;30.23;27.77;;;;;;;;;;4994666;28;20181;-86
2020/12/14 06:22:16;;;;;;;29.17;26.97;;;;;;;;;;4996049;28;20200;-86
2020/12/14 06:24:47;;;;;;;31.33;28.80;;;;;;;;;;4994568;28;20648;-86
2020/12/14 06:27:17;;;;;;;32.23;29.73;;;;;;;;;;4994576;28;20202;-86
2020/12/14 06:29:44;;;;;;;30.93;28.50;;;;;;;;;;4993435;28;20183;-86
2020/12/14 06:32:34;;;;;;;32.63;29.83;;;;;;;;;;5086561;23;20240;-86
2020/12/14 06:35:05;;;;;;;29.70;27.23;;;;;;;;;;4994798;28;20561;-86
2020/12/14 06:37:55;;;;;;;29.37;26.90;;;;;;;;;;4994746;28;20184;-86
2020/12/14 06:40:28;;;;;;;31.80;29.17;;;;;;;;;;4994522;28;20180;-86
2020/12/14 06:42:59;;;;;;;31.70;29.20;;;;;;;;;;4995917;28;20277;-86
2020/12/14 06:45:31;;;;;;;32.17;29.77;;;;;;;;;;4994985;28;20211;-86
2020/12/14 06:48:03;;;;;;;30.20;27.70;;;;;;;;;;4996146;28;20179;-86
2020/12/14 06:50:39;;;;;;;29.07;26.87;;;;;;;;;;4995580;28;20168;-86
2020/12/14 06:53:25;;;;;;;29.40;27.20;;;;;;;;;;4994711;28;20269;-86
2020/12/14 06:55:52;;;;;;;30.43;27.80;;;;;;;;;;4995770;28;20681;-86
2020/12/14 06:58:34;;;;;;;31.40;29.27;;;;;;;;;;4994692;28;20259;-86
2020/12/14 07:01:25;;;;;;;32.40;30.00;;;;;;;;;;4996014;28;20175;-86
2020/12/14 07:03:58;;;;;;;31.57;28.67;;;;;;;;;;4995780;28;20245;-86
2020/12/14 07:06:28;;;;;;;30.27;27.97;;;;;;;;;;4994426;28;20184;-86
2020/12/14 07:08:57;;;;;;;30.57;28.47;;;;;;;;;;4994379;28;20176;-86
2020/12/14 07:11:29;;;;;;;31.50;29.10;;;;;;;;;;4995608;28;20178;-85
2020/12/14 07:14:20;;;;;;;31.27;28.90;;;;;;;;;;4995598;28;20185;-86
2020/12/14 07:16:52;;;;;;;32.03;29.83;;;;;;;;;;4995650;28;20212;-86
2020/12/14 07:19:24;;;;;;;30.50;28.37;;;;;;;;;;4994085;28;20262;-86
2020/12/14 07:22:00;;;;;;;31.23;29.10;;;;;;;;;;4995480;28;20218;-86
2020/12/14 07:24:41;;;;;;;29.47;27.37;;;;;;;;;;4995901;28;20175;-86
2020/12/14 07:27:12;;;;;;;30.47;27.93;;;;;;;;;;4995531;28;20254;-86
2020/12/14 07:29:45;;;;;;;28.70;26.50;;;;;;;;;;4993874;28;20529;-86
2020/12/14 07:32:17;;;;;;;27.63;25.63;;;;;;;;;;4994166;28;20558;-87
2020/12/14 07:34:57;;;;;;;26.67;24.57;;;;;;;;;;4994945;28;20253;-87
2020/12/14 07:37:28;;;;;;;28.30;25.80;;;;;;;;;;4994121;28;20174;-86
2020/12/14 07:40:00;;;;;;;29.10;27.00;;;;;;;;;;4993667;28;20174;-87
2020/12/14 07:42:31;;;;;;;30.20;27.90;;;;;;;;;;4994847;28;20199;-86
2020/12/14 07:45:13;;;;;;;30.37;28.10;;;;;;;;;;4994698;28;20226;-87
2020/12/14 07:47:46;;;;;;;28.97;26.67;;;;;;;;;;4993884;28;20183;-87
2020/12/14 07:50:14;;;;;;;29.27;27.07;;;;;;;;;;4993849;28;20267;-86
2020/12/14 07:52:49;;;;;;;27.80;25.57;;;;;;;;;;4994613;28;20698;-86
2020/12/14 07:55:16;;;;;;;27.13;25.23;;;;;;;;;;4994879;28;20207;-87
2020/12/14 07:57:45;;;;;;;29.57;27.37;;;;;;;;;;4994342;28;20626;-87
2020/12/14 08:00:13;;;;;;;30.47;28.20;;;;;;;;;;4993630;28;20176;-87
2020/12/14 08:02:39;;;;;;;31.40;28.23;;;;;;;;;;4994874;28;20571;-87
2020/12/14 08:05:10;;;;;;;27.03;24.93;;;;;;;;;;4994820;28;20179;-88
2020/12/14 08:07:40;;;;;;;29.30;27.00;;;;;;;;;;4994266;28;20204;-87
2020/12/14 08:10:10;;;;;;;28.73;26.67;;;;;;;;;;4993742;28;20180;-88
2020/12/14 08:12:43;;;;;;;26.00;24.00;;;;;;;;;;4994320;28;20204;-87
2020/12/14 08:15:19;;;;;;;28.23;26.20;;;;;;;;;;4994734;28;20559;-87
2020/12/14 08:17:50;;;;;;;27.80;25.80;;;;;;;;;;4994467;28;20180;-87
2020/12/14 08:20:29;;;;;;;27.57;25.77;;;;;;;;;;4995199;28;20163;-87
2020/12/14 08:22:59;;;;;;;25.90;23.97;;;;;;;;;;4993603;28;20201;-86
2020/12/14 08:25:35;;;;;;;27.70;25.80;;;;;;;;;;4993038;28;20211;-87
2020/12/14 08:28:07;;;;;;;28.50;26.40;;;;;;;;;;4993161;28;20176;-87
2020/12/14 08:30:33;;;;;;;25.87;23.97;;;;;;;;;;4993085;28;20204;-87
2020/12/14 08:33:29;;;;;;;28.33;26.17;;;;;;;;;;4992984;28;20220;-87
2020/12/14 08:35:59;;;;;;;26.73;24.93;;;;;;;;;;4978935;28;20266;-88
2020/12/14 08:38:29;;;;;;;27.67;25.50;;;;;;;;;;4993561;28;20175;-88
2020/12/14 08:41:05;;;;;;;26.43;24.40;;;;;;;;;;4993557;28;20183;-88
2020/12/14 08:43:38;;;;;;;27.10;25.20;;;;;;;;;;4993413;28;20205;-88
2020/12/14 08:46:17;;;;;;;26.80;25.07;;;;;;;;;;4993779;28;20171;-88
2020/12/14 08:48:55;;;;;;;27.60;25.73;;;;;;;;;;4993952;28;20173;-88
2020/12/14 08:51:26;;;;;;;24.67;23.07;;;;;;;;;;4992291;28;20266;-88
2020/12/14 08:54:01;;;;;;;27.77;25.73;;;;;;;;;;4996217;28;20556;-88
2020/12/14 08:56:36;;;;;;;25.63;23.63;;;;;;;;;;4996397;28;20229;-87
2020/12/14 08:59:13;;;;;;;23.93;22.23;;;;;;;;;;4996316;28;20178;-87
2020/12/14 09:01:39;;;;;;;23.90;22.30;;;;;;;;;;4996437;28;20201;-87
2020/12/14 09:04:06;;;;;;;23.50;21.63;;;;;;;;;;4996830;28;20167;-87
2020/12/14 09:06:33;;;;;;;22.80;21.20;;;;;;;;;;4996502;28;20176;-88
2020/12/14 09:09:04;;;;;;;20.70;19.30;;;;;;;;;;4996241;28;20316;-87
2020/12/14 09:11:31;;;;;;;19.77;18.37;;;;;;;;;;4996102;28;20642;-87
2020/12/14 09:14:01;;;;;;;22.83;21.20;;;;;;;;;;4996344;28;20191;-87
2020/12/14 09:16:27;;;;;;;21.50;19.90;;;;;;;;;;4996340;28;20198;-87
2020/12/14 09:18:53;;;;;;;21.17;19.57;;;;;;;;;;4997406;28;20203;-87
2020/12/14 09:21:19;;;;;;;21.07;19.57;;;;;;;;;;4995967;28;20595;-88
2020/12/14 09:24:05;;;;;;;19.93;18.63;;;;;;;;;;4996198;28;20203;-87
2020/12/14 09:26:31;;;;;;;21.10;19.27;;;;;;;;;;4995877;28;20267;-87
2020/12/14 09:28:57;;;;;;;21.97;20.27;;;;;;;;;;4995793;28;20178;-87
2020/12/14 09:31:24;;;;;;;22.57;20.73;;;;;;;;;;4995785;28;20608;-87
2020/12/14 09:33:50;;;;;;;21.63;19.93;;;;;;;;;;4995791;28;20193;-87
2020/12/14 09:36:16;;;;;;;22.90;21.40;;;;;;;;;;4995751;28;20216;-87
2020/12/14 09:38:43;;;;;;;21.57;20.17;;;;;;;;;;4996937;28;20176;-87
2020/12/14 09:41:09;;;;;;;22.23;20.73;;;;;;;;;;4995670;28;20719;-87
2020/12/14 09:43:36;;;;;;;21.90;20.17;;;;;;;;;;4995467;28;20203;-87
2020/12/14 09:46:01;;;;;;;22.43;20.93;;;;;;;;;;4995547;28;20230;-87
2020/12/14 09:48:28;;;;;;;22.87;21.30;;;;;;;;;;4995540;28;20264;-87
2020/12/14 09:50:54;;;;;;;22.50;20.90;;;;;;;;;;4996129;28;20274;-87
2020/12/14 09:53:20;;;;;;;23.27;21.67;;;;;;;;;;4995514;28;20198;-87
2020/12/14 09:55:46;;;;;;;22.63;21.07;;;;;;;;;;4995450;28;20203;-87
2020/12/14 09:58:12;;;;;;;21.70;19.97;;;;;;;;;;4995285;28;20182;-87
2020/12/14 10:00:40;;;;;;;22.70;21.13;;;;;;;;;;4995626;28;20205;-87
2020/12/14 10:03:06;;;;;;;23.20;21.40;;;;;;;;;;4995274;28;20218;-87
2020/12/14 10:05:32;;;;;;;23.23;21.43;;;;;;;;;;4996761;28;20193;-87
2020/12/14 10:07:58;;;;;;;22.13;20.53;;;;;;;;;;4995011;28;20270;-87
2020/12/14 10:10:24;;;;;;;21.50;19.93;;;;;;;;;;4995246;28;20234;-87
2020/12/14 10:12:58;;;;;;;21.20;19.50;;;;;;;;;;4995170;28;20206;-87
2020/12/14 10:15:24;;;;;;;19.27;17.97;;;;;;;;;;4995108;28;20726;-87
2020/12/14 10:17:50;;;;;;;16.43;15.27;;;;;;;;;;4995437;28;20180;-87
2020/12/14 10:20:16;;;;;;;16.03;14.83;;;;;;;;;;4994965;28;20529;-87
2020/12/14 10:22:42;;;;;;;16.83;15.40;;;;;;;;;;4995476;28;20199;-87
2020/12/14 10:25:08;;;;;;;16.47;15.17;;;;;;;;;;4994892;28;20223;-87
2020/12/14 10:27:36;;;;;;;16.93;15.40;;;;;;;;;;4994921;28;20182;-87
2020/12/14 10:30:02;;;;;;;17.37;16.10;;;;;;;;;;4995086;28;20685;-87
2020/12/14 10:32:28;;;;;;;18.07;16.77;;;;;;;;;;4994412;28;20265;-86
2020/12/14 10:34:54;;;;;;;19.40;18.00;;;;;;;;;;4994619;28;20678;-87
2020/12/14 10:37:20;;;;;;;18.30;16.93;;;;;;;;;;4994702;28;20187;-86
2020/12/14 10:39:47;;;;;;;17.33;16.07;;;;;;;;;;4994603;28;20583;-86
2020/12/14 10:42:14;;;;;;;17.93;16.20;;;;;;;;;;4994828;28;20219;-87
2020/12/14 10:44:40;;;;;;;17.97;16.43;;;;;;;;;;4994404;28;20181;-87
2020/12/14 10:47:07;;;;;;;17.73;16.53;;;;;;;;;;4995702;28;20716;-87
2020/12/14 10:49:34;;;;;;;19.00;17.70;;;;;;;;;;4994364;28;20655;-87
2020/12/14 10:52:04;;;;;;;19.37;17.77;;;;;;;;;;4994064;28;20204;-87
2020/12/14 10:54:30;;;;;;;18.53;17.20;;;;;;;;;;4995317;28;20179;-87
2020/12/14 10:56:57;;;;;;;17.57;16.23;;;;;;;;;;4995206;28;20225;-87
2020/12/14 10:59:24;;;;;;;18.03;16.63;;;;;;;;;;4995238;28;20176;-87
2020/12/14 11:01:51;;;;;;;17.83;16.63;;;;;;;;;;4993914;28;20208;-86
2020/12/14 11:04:17;;;;;;;18.90;17.50;;;;;;;;;;4993945;28;20597;-86
2020/12/14 11:06:43;;;;;;;18.37;16.97;;;;;;;;;;4994236;28;20319;-86
2020/12/14 11:09:09;;;;;;;18.43;17.10;;;;;;;;;;4994206;28;20316;-86
2020/12/14 11:11:35;;;;;;;19.20;17.80;;;;;;;;;;4993936;28;20189;-86
2020/12/14 11:14:02;;;;;;;19.27;17.67;;;;;;;;;;4994990;28;20206;-86
2020/12/14 11:16:30;;;;;;;18.70;17.30;;;;;;;;;;4993115;28;20212;-86
2020/12/14 11:18:57;;;;;;;18.93;17.43;;;;;;;;;;4993559;28;20180;-87
2020/12/14 11:21:23;;;;;;;17.83;16.63;;;;;;;;;;4993608;28;20180;-86
2020/12/14 11:23:49;;;;;;;18.57;17.30;;;;;;;;;;4994873;28;20649;-86
2020/12/14 11:26:15;;;;;;;19.10;17.77;;;;;;;;;;4994578;28;20184;-87
2020/12/14 11:28:41;;;;;;;20.37;18.77;;;;;;;;;;4994625;28;20196;-86
2020/12/14 11:31:08;;;;;;;19.43;17.70;;;;;;;;;;4994539;28;20272;-86
2020/12/14 11:33:37;;;;;;;18.80;17.40;;;;;;;;;;4993570;28;20307;-86
2020/12/14 11:36:04;;;;;;;17.87;16.60;;;;;;;;;;4993179;28;20204;-86
2020/12/14 11:38:30;;;;;;;18.40;17.00;;;;;;;;;;4994672;28;20184;-87
2020/12/14 11:40:59;;;;;;;18.03;16.83;;;;;;;;;;4994838;28;20173;-86
2020/12/14 11:43:26;;;;;;;18.07;16.67;;;;;;;;;;4993167;28;20199;-86
2020/12/14 11:45:52;;;;;;;18.00;16.50;;;;;;;;;;4993208;28;20228;-86
2020/12/14 11:48:18;;;;;;;18.57;17.20;;;;;;;;;;4993142;28;20564;-86
2020/12/14 11:50:44;;;;;;;16.53;15.13;;;;;;;;;;4994587;28;20207;-86
2020/12/14 11:53:11;;;;;;;18.83;17.37;;;;;;;;;;4993091;28;20209;-86
2020/12/14 11:55:47;;;;;;;;;;;;;;;;;;;;;
2020/12/14 11:58:14;;;;;;;19.77;18.07;;;;;;;;;;4994361;28;20176;-85
2020/12/14 12:00:40;;;;;;;17.07;15.73;;;;;;;;;;4993199;28;20185;-86
2020/12/14 12:03:06;;;;;;;18.47;17.17;;;;;;;;;;4992801;28;20688;-86
2020/12/14 12:05:32;;;;;;;18.83;17.53;;;;;;;;;;4977534;28;20608;-86
2020/12/14 12:07:58;;;;;;;20.10;18.80;;;;;;;;;;4993096;28;20185;-86
2020/12/14 12:10:27;;;;;;;18.77;17.03;;;;;;;;;;4994262;28;20181;-85
2020/12/14 12:12:55;;;;;;;17.87;16.47;;;;;;;;;;4994486;28;20542;-87
2020/12/14 12:15:26;;;;;;;18.67;17.10;;;;;;;;;;4992563;28;20219;-86
2020/12/14 12:17:56;;;;;;;19.77;18.13;;;;;;;;;;4992882;28;20546;-86
2020/12/14 12:20:26;;;;;;;19.77;18.33;;;;;;;;;;4994068;28;20205;-86
2020/12/14 12:22:58;;;;;;;18.97;17.67;;;;;;;;;;4992800;28;20288;-86
2020/12/14 12:25:29;;;;;;;16.63;15.40;;;;;;;;;;4992692;28;20639;-86
2020/12/14 12:27:58;;;;;;;19.13;17.73;;;;;;;;;;4991812;28;20196;-85
2020/12/14 12:30:34;;;;;;;18.27;16.57;;;;;;;;;;4994007;28;20192;-86
2020/12/14 12:33:03;;;;;;;18.87;17.57;;;;;;;;;;4993895;28;20274;-85
2020/12/14 12:35:32;;;;;;;18.37;16.87;;;;;;;;;;4992434;28;20220;-86
2020/12/14 12:38:09;;;;;;;18.23;17.10;;;;;;;;;;5018152;23;20299;-84
2020/12/14 12:40:36;;;;;;;17.10;15.80;;;;;;;;;;4994347;28;20170;-84
2020/12/14 12:43:05;;;;;;;18.87;17.43;;;;;;;;;;4994174;28;20180;-85
2020/12/14 12:45:34;;;;;;;17.47;16.10;;;;;;;;;;4994348;28;20180;-84
2020/12/14 12:48:01;;;;;;;16.77;15.17;;;;;;;;;;4994169;28;20221;-84
2020/12/14 12:50:32;;;;;;;16.80;15.50;;;;;;;;;;4994160;28;20182;-84
2020/12/14 12:52:59;;;;;;;16.77;15.40;;;;;;;;;;4994219;28;20253;-84
2020/12/14 12:55:31;;;;;;;17.20;15.97;;;;;;;;;;4994026;28;20263;-84
2020/12/14 12:58:01;;;;;;;18.90;17.30;;;;;;;;;;4992722;28;20201;-84
2020/12/14 13:00:34;;;;;;;17.70;16.30;;;;;;;;;;4994675;28;20178;-85
2020/12/14 13:03:06;;;;;;;19.00;17.73;;;;;;;;;;4992531;28;20181;-85
2020/12/14 13:05:37;;;;;;;16.93;15.73;;;;;;;;;;4992629;28;20188;-84
2020/12/14 13:08:09;;;;;;;19.07;17.60;;;;;;;;;;4993828;28;20663;-85
2020/12/14 13:10:41;;;;;;;18.87;17.47;;;;;;;;;;4992939;28;20197;-85
2020/12/14 13:13:11;;;;;;;18.33;17.03;;;;;;;;;;4993608;28;20277;-84
2020/12/14 13:15:48;;;;;;;18.97;17.43;;;;;;;;;;4993728;28;20232;-85
2020/12/14 13:18:14;;;;;;;20.13;18.63;;;;;;;;;;4992425;28;20201;-85
2020/12/14 13:20:44;;;;;;;19.13;17.93;;;;;;;;;;4993716;28;20178;-84
2020/12/14 13:23:11;;;;;;;19.77;18.23;;;;;;;;;;4994028;28;20205;-85
2020/12/14 13:25:39;;;;;;;19.57;18.17;;;;;;;;;;4994522;28;20174;-86
2020/12/14 13:28:10;;;;;;;16.73;15.73;;;;;;;;;;4994297;28;20201;-87
2020/12/14 13:30:38;;;;;;;17.40;16.20;;;;;;;;;;4992474;28;20193;-84
2020/12/14 13:33:06;;;;;;;17.17;15.87;;;;;;;;;;4992753;28;20589;-84
2020/12/14 13:35:42;;;;;;;18.13;16.63;;;;;;;;;;4993862;28;20202;-84
2020/12/14 13:38:13;;;;;;;18.23;16.83;;;;;;;;;;4994218;28;20264;-84
2020/12/14 13:40:41;;;;;;;19.03;17.57;;;;;;;;;;4996422;28;20227;-85
2020/12/14 13:43:10;;;;;;;17.87;16.67;;;;;;;;;;4996114;28;20181;-85
2020/12/14 13:45:42;;;;;;;18.53;17.23;;;;;;;;;;4996381;28;20177;-84
2020/12/14 13:48:13;;;;;;;18.63;17.40;;;;;;;;;;4996523;28;20661;-84
2020/12/14 13:50:41;;;;;;;17.27;16.17;;;;;;;;;;4997543;28;20178;-84
2020/12/14 13:53:11;;;;;;;17.27;15.97;;;;;;;;;;4995904;28;20265;-85
2020/12/14 13:55:41;;;;;;;16.37;15.07;;;;;;;;;;4997286;28;20194;-85
2020/12/14 13:58:11;;;;;;;17.50;16.00;;;;;;;;;;4997276;28;20193;-84
2020/12/14 14:00:41;;;;;;;17.37;16.07;;;;;;;;;;4995920;28;20185;-84
2020/12/14 14:03:10;;;;;;;18.10;16.80;;;;;;;;;;4995839;28;20174;-84
2020/12/14 14:05:40;;;;;;;19.20;17.60;;;;;;;;;;4996982;28;20169;-84
2020/12/14 14:08:14;;;;;;;18.73;17.37;;;;;;;;;;4995470;28;20213;-84
2020/12/14 14:10:47;;;;;;;18.10;16.60;;;;;;;;;;4997462;28;20181;-84
2020/12/14 14:13:21;;;;;;;19.37;17.87;;;;;;;;;;4996512;28;20273;-84
2020/12/14 14:15:54;;;;;;;17.27;16.07;;;;;;;;;;4996554;28;20297;-84
2020/12/14 14:18:29;;;;;;;18.83;17.43;;;;;;;;;;4996426;28;20663;-84
2020/12/14 14:21:04;;;;;;;21.67;19.92;;;;;;;;;;4995460;28;20409;-84
2020/12/14 14:23:36;;;;;;;21.80;19.87;;;;;;;;;;4994922;28;20177;-84
2020/12/14 14:26:07;;;;;;;20.30;18.80;;;;;;;;;;4995553;28;20658;-84
2020/12/14 14:28:36;;;;;;;20.30;18.83;;;;;;;;;;4996250;28;20225;-84
2020/12/14 14:31:07;;;;;;;20.50;19.00;;;;;;;;;;4996261;28;20186;-83
2020/12/14 14:33:39;;;;;;;19.90;18.47;;;;;;;;;;4994718;28;20178;-84
2020/12/14 14:36:10;;;;;;;18.63;17.33;;;;;;;;;;4996115;28;20193;-84
2020/12/14 14:38:43;;;;;;;19.53;17.97;;;;;;;;;;4994715;28;20205;-84